sensor_id;sensor_type;location;lat;lon;timestamp;P1;durP1;ratioP1;P2;durP2;ratioP2
82526;SDS011;72188;41.974;21.456;2024-01-30T00:01:56;17.10;;;11.90;;
82526;SDS011;72188;41.974;21.456;2024-01-30T00:04:22;22.55;;;11.95;;
82526;SDS011;72188;41.974;21.456;2024-01-30T00:06:48;24.38;;;13.48;;
82526;SDS011;72188;41.974;21.456;2024-01-30T00:09:14;29.05;;;15.95;;
82526;SDS011;72188;41.974;21.456;2024-01-30T00:11:40;25.80;;;15.43;;
82526;SDS011;72188;41.974;21.456;2024-01-30T00:14:06;24.70;;;12.98;;
82526;SDS011;72188;41.974;21.456;2024-01-30T00:16:32;33.92;;;17.50;;
82526;SDS011;72188;41.974;21.456;2024-01-30T00:18:59;34.00;;;18.17;;
82526;SDS011;72188;41.974;21.456;2024-01-30T00:21:27;28.58;;;16.77;;
82526;SDS011;72188;41.974;21.456;2024-01-30T00:23:53;36.03;;;18.42;;
82526;SDS011;72188;41.974;21.456;2024-01-30T00:26:19;36.22;;;17.52;;
82526;SDS011;72188;41.974;21.456;2024-01-30T00:28:45;34.55;;;18.42;;
82526;SDS011;72188;41.974;21.456;2024-01-30T00:31:11;32.25;;;17.88;;
82526;SDS011;72188;41.974;21.456;2024-01-30T00:33:41;32.35;;;18.55;;
82526;SDS011;72188;41.974;21.456;2024-01-30T00:36:07;28.85;;;14.90;;
82526;SDS011;72188;41.974;21.456;2024-01-30T00:38:34;30.83;;;16.83;;
82526;SDS011;72188;41.974;21.456;2024-01-30T00:41:00;28.38;;;15.13;;
82526;SDS011;72188;41.974;21.456;2024-01-30T00:43:27;27.73;;;13.25;;
82526;SDS011;72188;41.974;21.456;2024-01-30T00:45:54;20.60;;;11.63;;
82526;SDS011;72188;41.974;21.456;2024-01-30T00:48:20;25.02;;;13.05;;
82526;SDS011;72188;41.974;21.456;2024-01-30T00:50:46;23.88;;;13.20;;
82526;SDS011;72188;41.974;21.456;2024-01-30T00:53:12;20.27;;;11.45;;
82526;SDS011;72188;41.974;21.456;2024-01-30T00:55:38;39.17;;;17.38;;
82526;SDS011;72188;41.974;21.456;2024-01-30T00:58:04;42.28;;;20.30;;
82526;SDS011;72188;41.974;21.456;2024-01-30T01:00:31;40.03;;;19.33;;
82526;SDS011;72188;41.974;21.456;2024-01-30T01:02:58;35.63;;;17.23;;
82526;SDS011;72188;41.974;21.456;2024-01-30T01:05:24;39.47;;;17.10;;
82526;SDS011;72188;41.974;21.456;2024-01-30T01:07:50;35.70;;;16.30;;
82526;SDS011;72188;41.974;21.456;2024-01-30T01:10:16;33.03;;;16.38;;
82526;SDS011;72188;41.974;21.456;2024-01-30T01:12:43;28.13;;;14.85;;
82526;SDS011;72188;41.974;21.456;2024-01-30T01:15:09;27.55;;;14.07;;
82526;SDS011;72188;41.974;21.456;2024-01-30T01:17:36;26.45;;;13.93;;
82526;SDS011;72188;41.974;21.456;2024-01-30T01:20:02;34.22;;;16.55;;
82526;SDS011;72188;41.974;21.456;2024-01-30T01:22:30;27.50;;;13.95;;
82526;SDS011;72188;41.974;21.456;2024-01-30T01:24:56;32.15;;;16.10;;
82526;SDS011;72188;41.974;21.456;2024-01-30T01:27:22;18.30;;;11.73;;
82526;SDS011;72188;41.974;21.456;2024-01-30T01:29:48;23.20;;;12.85;;
82526;SDS011;72188;41.974;21.456;2024-01-30T01:32:14;20.52;;;11.82;;
82526;SDS011;72188;41.974;21.456;2024-01-30T01:34:41;28.50;;;13.15;;
82526;SDS011;72188;41.974;21.456;2024-01-30T01:37:07;29.88;;;14.85;;
82526;SDS011;72188;41.974;21.456;2024-01-30T01:39:33;30.23;;;14.75;;
82526;SDS011;72188;41.974;21.456;2024-01-30T01:41:59;32.92;;;15.10;;
82526;SDS011;72188;41.974;21.456;2024-01-30T01:44:25;48.22;;;20.67;;
82526;SDS011;72188;41.974;21.456;2024-01-30T01:46:51;44.00;;;20.63;;
82526;SDS011;72188;41.974;21.456;2024-01-30T01:49:18;36.70;;;17.83;;
82526;SDS011;72188;41.974;21.456;2024-01-30T01:51:44;38.17;;;17.50;;
82526;SDS011;72188;41.974;21.456;2024-01-30T01:54:11;24.00;;;12.05;;
82526;SDS011;72188;41.974;21.456;2024-01-30T01:56:38;20.48;;;11.90;;
82526;SDS011;72188;41.974;21.456;2024-01-30T01:59:05;28.10;;;14.00;;
82526;SDS011;72188;41.974;21.456;2024-01-30T02:01:32;25.10;;;12.32;;
82526;SDS011;72188;41.974;21.456;2024-01-30T02:03:59;21.70;;;11.98;;
82526;SDS011;72188;41.974;21.456;2024-01-30T02:06:25;20.08;;;11.15;;
82526;SDS011;72188;41.974;21.456;2024-01-30T02:08:51;19.15;;;12.23;;
82526;SDS011;72188;41.974;21.456;2024-01-30T02:11:18;19.73;;;12.48;;
82526;SDS011;72188;41.974;21.456;2024-01-30T02:13:44;28.70;;;17.50;;
82526;SDS011;72188;41.974;21.456;2024-01-30T02:16:10;24.33;;;13.20;;
82526;SDS011;72188;41.974;21.456;2024-01-30T02:18:36;18.10;;;10.68;;
82526;SDS011;72188;41.974;21.456;2024-01-30T02:21:07;21.17;;;12.20;;
82526;SDS011;72188;41.974;21.456;2024-01-30T02:23:33;23.48;;;11.68;;
82526;SDS011;72188;41.974;21.456;2024-01-30T02:25:59;24.20;;;12.68;;
82526;SDS011;72188;41.974;21.456;2024-01-30T02:28:26;28.67;;;14.57;;
82526;SDS011;72188;41.974;21.456;2024-01-30T02:30:55;25.63;;;14.75;;
82526;SDS011;72188;41.974;21.456;2024-01-30T02:33:21;15.18;;;9.70;;
82526;SDS011;72188;41.974;21.456;2024-01-30T02:35:48;19.02;;;10.82;;
82526;SDS011;72188;41.974;21.456;2024-01-30T02:38:15;14.18;;;8.30;;
82526;SDS011;72188;41.974;21.456;2024-01-30T02:40:41;24.75;;;14.98;;
82526;SDS011;72188;41.974;21.456;2024-01-30T02:43:08;12.13;;;5.82;;
82526;SDS011;72188;41.974;21.456;2024-01-30T02:45:34;16.60;;;8.98;;
82526;SDS011;72188;41.974;21.456;2024-01-30T02:48:00;27.55;;;13.85;;
82526;SDS011;72188;41.974;21.456;2024-01-30T02:50:26;23.08;;;14.43;;
82526;SDS011;72188;41.974;21.456;2024-01-30T02:52:52;22.20;;;13.05;;
82526;SDS011;72188;41.974;21.456;2024-01-30T02:55:18;24.02;;;13.88;;
82526;SDS011;72188;41.974;21.456;2024-01-30T02:57:44;24.15;;;13.45;;
82526;SDS011;72188;41.974;21.456;2024-01-30T03:00:10;16.75;;;8.50;;
82526;SDS011;72188;41.974;21.456;2024-01-30T03:02:37;20.27;;;12.43;;
82526;SDS011;72188;41.974;21.456;2024-01-30T03:05:04;24.73;;;13.07;;
82526;SDS011;72188;41.974;21.456;2024-01-30T03:07:30;22.25;;;13.48;;
82526;SDS011;72188;41.974;21.456;2024-01-30T03:09:56;22.33;;;12.50;;
82526;SDS011;72188;41.974;21.456;2024-01-30T03:12:22;24.27;;;12.88;;
82526;SDS011;72188;41.974;21.456;2024-01-30T03:14:48;21.23;;;14.25;;
82526;SDS011;72188;41.974;21.456;2024-01-30T03:17:14;25.17;;;13.15;;
82526;SDS011;72188;41.974;21.456;2024-01-30T03:19:40;19.13;;;11.25;;
82526;SDS011;72188;41.974;21.456;2024-01-30T03:22:07;24.75;;;13.68;;
82526;SDS011;72188;41.974;21.456;2024-01-30T03:24:33;26.45;;;13.75;;
82526;SDS011;72188;41.974;21.456;2024-01-30T03:26:59;20.33;;;12.00;;
82526;SDS011;72188;41.974;21.456;2024-01-30T03:29:25;17.30;;;9.43;;
82526;SDS011;72188;41.974;21.456;2024-01-30T03:31:51;25.27;;;11.55;;
82526;SDS011;72188;41.974;21.456;2024-01-30T03:34:17;22.35;;;11.43;;
82526;SDS011;72188;41.974;21.456;2024-01-30T03:36:43;23.92;;;12.60;;
82526;SDS011;72188;41.974;21.456;2024-01-30T03:39:09;21.40;;;11.88;;
82526;SDS011;72188;41.974;21.456;2024-01-30T03:41:35;17.52;;;10.00;;
82526;SDS011;72188;41.974;21.456;2024-01-30T03:44:02;18.45;;;10.30;;
82526;SDS011;72188;41.974;21.456;2024-01-30T03:46:28;18.67;;;10.55;;
82526;SDS011;72188;41.974;21.456;2024-01-30T03:48:54;14.82;;;9.27;;
82526;SDS011;72188;41.974;21.456;2024-01-30T03:51:20;20.90;;;11.38;;
82526;SDS011;72188;41.974;21.456;2024-01-30T03:53:46;23.40;;;11.77;;
82526;SDS011;72188;41.974;21.456;2024-01-30T03:56:12;16.20;;;9.07;;
82526;SDS011;72188;41.974;21.456;2024-01-30T03:58:39;25.25;;;10.10;;
82526;SDS011;72188;41.974;21.456;2024-01-30T04:01:05;17.98;;;10.38;;
82526;SDS011;72188;41.974;21.456;2024-01-30T04:03:31;18.80;;;10.75;;
82526;SDS011;72188;41.974;21.456;2024-01-30T04:05:57;15.02;;;8.65;;
82526;SDS011;72188;41.974;21.456;2024-01-30T04:08:23;15.13;;;6.78;;
82526;SDS011;72188;41.974;21.456;2024-01-30T04:10:49;13.27;;;7.25;;
82526;SDS011;72188;41.974;21.456;2024-01-30T04:13:15;11.60;;;6.65;;
82526;SDS011;72188;41.974;21.456;2024-01-30T04:15:41;10.85;;;6.68;;
82526;SDS011;72188;41.974;21.456;2024-01-30T04:21:11;12.23;;;7.18;;
82526;SDS011;72188;41.974;21.456;2024-01-30T04:23:37;15.95;;;7.93;;
82526;SDS011;72188;41.974;21.456;2024-01-30T04:26:03;11.18;;;6.78;;
82526;SDS011;72188;41.974;21.456;2024-01-30T04:28:29;18.70;;;7.78;;
82526;SDS011;72188;41.974;21.456;2024-01-30T04:30:55;12.40;;;6.93;;
82526;SDS011;72188;41.974;21.456;2024-01-30T04:33:21;14.45;;;8.38;;
82526;SDS011;72188;41.974;21.456;2024-01-30T04:35:47;13.93;;;8.60;;
82526;SDS011;72188;41.974;21.456;2024-01-30T04:38:13;13.65;;;7.72;;
82526;SDS011;72188;41.974;21.456;2024-01-30T04:40:40;17.48;;;8.63;;
82526;SDS011;72188;41.974;21.456;2024-01-30T04:43:06;17.02;;;9.95;;
82526;SDS011;72188;41.974;21.456;2024-01-30T04:45:32;21.90;;;9.98;;
82526;SDS011;72188;41.974;21.456;2024-01-30T04:47:58;18.42;;;9.77;;
82526;SDS011;72188;41.974;21.456;2024-01-30T04:50:24;16.00;;;8.38;;
82526;SDS011;72188;41.974;21.456;2024-01-30T04:52:51;17.83;;;9.77;;
82526;SDS011;72188;41.974;21.456;2024-01-30T04:55:17;19.30;;;11.52;;
82526;SDS011;72188;41.974;21.456;2024-01-30T04:57:43;23.08;;;11.52;;
82526;SDS011;72188;41.974;21.456;2024-01-30T05:00:10;28.80;;;14.48;;
82526;SDS011;72188;41.974;21.456;2024-01-30T05:02:36;20.58;;;11.93;;
82526;SDS011;72188;41.974;21.456;2024-01-30T05:05:02;26.77;;;14.15;;
82526;SDS011;72188;41.974;21.456;2024-01-30T05:07:28;23.92;;;12.70;;
82526;SDS011;72188;41.974;21.456;2024-01-30T05:09:54;20.77;;;11.65;;
82526;SDS011;72188;41.974;21.456;2024-01-30T05:12:20;23.52;;;14.25;;
82526;SDS011;72188;41.974;21.456;2024-01-30T05:14:46;25.02;;;12.55;;
82526;SDS011;72188;41.974;21.456;2024-01-30T05:17:12;32.75;;;12.00;;
82526;SDS011;72188;41.974;21.456;2024-01-30T05:19:38;26.90;;;13.25;;
82526;SDS011;72188;41.974;21.456;2024-01-30T05:22:04;28.48;;;13.70;;
82526;SDS011;72188;41.974;21.456;2024-01-30T05:24:30;30.95;;;13.27;;
82526;SDS011;72188;41.974;21.456;2024-01-30T05:26:57;21.35;;;11.75;;
82526;SDS011;72188;41.974;21.456;2024-01-30T05:29:23;22.55;;;13.25;;
82526;SDS011;72188;41.974;21.456;2024-01-30T05:31:49;22.10;;;12.85;;
82526;SDS011;72188;41.974;21.456;2024-01-30T05:34:16;27.20;;;13.65;;
82526;SDS011;72188;41.974;21.456;2024-01-30T05:36:42;27.25;;;13.48;;
82526;SDS011;72188;41.974;21.456;2024-01-30T05:39:08;32.00;;;15.90;;
82526;SDS011;72188;41.974;21.456;2024-01-30T05:41:34;17.42;;;9.82;;
82526;SDS011;72188;41.974;21.456;2024-01-30T05:44:00;29.55;;;16.27;;
82526;SDS011;72188;41.974;21.456;2024-01-30T05:46:26;31.27;;;15.65;;
82526;SDS011;72188;41.974;21.456;2024-01-30T05:48:52;33.67;;;19.02;;
82526;SDS011;72188;41.974;21.456;2024-01-30T05:51:18;47.10;;;23.98;;
82526;SDS011;72188;41.974;21.456;2024-01-30T05:53:44;25.73;;;14.80;;
82526;SDS011;72188;41.974;21.456;2024-01-30T05:56:10;49.40;;;23.73;;
82526;SDS011;72188;41.974;21.456;2024-01-30T05:58:36;46.15;;;24.27;;
82526;SDS011;72188;41.974;21.456;2024-01-30T06:01:03;37.80;;;22.80;;
82526;SDS011;72188;41.974;21.456;2024-01-30T06:03:33;35.70;;;21.45;;
82526;SDS011;72188;41.974;21.456;2024-01-30T06:05:59;45.38;;;24.27;;
82526;SDS011;72188;41.974;21.456;2024-01-30T06:08:25;44.28;;;21.85;;
82526;SDS011;72188;41.974;21.456;2024-01-30T06:10:51;51.00;;;28.90;;
82526;SDS011;72188;41.974;21.456;2024-01-30T06:13:18;38.75;;;26.10;;
82526;SDS011;72188;41.974;21.456;2024-01-30T06:15:44;42.42;;;24.02;;
82526;SDS011;72188;41.974;21.456;2024-01-30T06:18:10;45.20;;;23.80;;
82526;SDS011;72188;41.974;21.456;2024-01-30T06:20:36;52.63;;;29.95;;
82526;SDS011;72188;41.974;21.456;2024-01-30T06:23:02;41.40;;;22.70;;
82526;SDS011;72188;41.974;21.456;2024-01-30T06:25:28;44.80;;;24.27;;
82526;SDS011;72188;41.974;21.456;2024-01-30T06:27:54;43.03;;;24.85;;
82526;SDS011;72188;41.974;21.456;2024-01-30T06:30:20;52.58;;;24.52;;
82526;SDS011;72188;41.974;21.456;2024-01-30T06:32:46;43.25;;;23.75;;
82526;SDS011;72188;41.974;21.456;2024-01-30T06:35:12;39.90;;;22.20;;
82526;SDS011;72188;41.974;21.456;2024-01-30T06:37:38;41.90;;;25.63;;
82526;SDS011;72188;41.974;21.456;2024-01-30T06:40:04;42.60;;;23.55;;
82526;SDS011;72188;41.974;21.456;2024-01-30T06:42:31;41.70;;;21.77;;
82526;SDS011;72188;41.974;21.456;2024-01-30T06:44:57;40.50;;;20.90;;
82526;SDS011;72188;41.974;21.456;2024-01-30T06:47:23;39.30;;;21.23;;
82526;SDS011;72188;41.974;21.456;2024-01-30T06:49:49;39.13;;;22.13;;
82526;SDS011;72188;41.974;21.456;2024-01-30T06:52:15;45.65;;;23.98;;
82526;SDS011;72188;41.974;21.456;2024-01-30T06:54:41;47.78;;;27.02;;
82526;SDS011;72188;41.974;21.456;2024-01-30T06:57:07;52.90;;;28.50;;
82526;SDS011;72188;41.974;21.456;2024-01-30T06:59:36;59.20;;;31.05;;
82526;SDS011;72188;41.974;21.456;2024-01-30T07:02:08;64.68;;;29.23;;
82526;SDS011;72188;41.974;21.456;2024-01-30T07:04:34;61.95;;;32.67;;
82526;SDS011;72188;41.974;21.456;2024-01-30T07:07:02;52.70;;;30.23;;
82526;SDS011;72188;41.974;21.456;2024-01-30T07:09:29;64.65;;;29.98;;
82526;SDS011;72188;41.974;21.456;2024-01-30T07:11:56;47.95;;;24.92;;
82526;SDS011;72188;41.974;21.456;2024-01-30T07:14:23;58.30;;;26.15;;
82526;SDS011;72188;41.974;21.456;2024-01-30T07:16:49;52.40;;;27.17;;
82526;SDS011;72188;41.974;21.456;2024-01-30T07:19:15;48.58;;;27.30;;
82526;SDS011;72188;41.974;21.456;2024-01-30T07:21:42;66.78;;;30.52;;
82526;SDS011;72188;41.974;21.456;2024-01-30T07:24:08;37.13;;;22.23;;
82526;SDS011;72188;41.974;21.456;2024-01-30T07:26:34;50.47;;;26.88;;
82526;SDS011;72188;41.974;21.456;2024-01-30T07:29:00;55.95;;;30.80;;
82526;SDS011;72188;41.974;21.456;2024-01-30T07:31:27;52.53;;;30.05;;
82526;SDS011;72188;41.974;21.456;2024-01-30T07:33:53;53.63;;;30.40;;
82526;SDS011;72188;41.974;21.456;2024-01-30T07:36:19;42.88;;;25.88;;
82526;SDS011;72188;41.974;21.456;2024-01-30T07:38:45;41.80;;;24.58;;
82526;SDS011;72188;41.974;21.456;2024-01-30T07:41:11;50.88;;;27.60;;
82526;SDS011;72188;41.974;21.456;2024-01-30T07:43:38;45.83;;;21.95;;
82526;SDS011;72188;41.974;21.456;2024-01-30T07:46:04;40.20;;;25.70;;
82526;SDS011;72188;41.974;21.456;2024-01-30T07:48:31;29.48;;;19.20;;
82526;SDS011;72188;41.974;21.456;2024-01-30T07:50:59;39.65;;;23.65;;
82526;SDS011;72188;41.974;21.456;2024-01-30T07:53:25;38.10;;;23.00;;
82526;SDS011;72188;41.974;21.456;2024-01-30T07:55:52;34.95;;;21.83;;
82526;SDS011;72188;41.974;21.456;2024-01-30T07:58:18;36.88;;;22.20;;
82526;SDS011;72188;41.974;21.456;2024-01-30T08:00:44;33.30;;;19.77;;
82526;SDS011;72188;41.974;21.456;2024-01-30T08:03:10;35.30;;;22.10;;
82526;SDS011;72188;41.974;21.456;2024-01-30T08:05:36;41.90;;;29.40;;
82526;SDS011;72188;41.974;21.456;2024-01-30T08:08:04;26.23;;;16.80;;
82526;SDS011;72188;41.974;21.456;2024-01-30T08:10:30;25.80;;;14.60;;
82526;SDS011;72188;41.974;21.456;2024-01-30T08:12:56;25.13;;;15.85;;
82526;SDS011;72188;41.974;21.456;2024-01-30T08:15:22;26.45;;;15.32;;
82526;SDS011;72188;41.974;21.456;2024-01-30T08:17:48;27.13;;;15.60;;
82526;SDS011;72188;41.974;21.456;2024-01-30T08:20:14;21.08;;;12.90;;
82526;SDS011;72188;41.974;21.456;2024-01-30T08:22:42;24.35;;;12.90;;
82526;SDS011;72188;41.974;21.456;2024-01-30T08:25:08;20.85;;;12.80;;
82526;SDS011;72188;41.974;21.456;2024-01-30T08:27:35;21.63;;;12.45;;
82526;SDS011;72188;41.974;21.456;2024-01-30T08:30:03;18.38;;;11.23;;
82526;SDS011;72188;41.974;21.456;2024-01-30T08:32:30;15.45;;;9.50;;
82526;SDS011;72188;41.974;21.456;2024-01-30T08:34:56;15.40;;;9.60;;
82526;SDS011;72188;41.974;21.456;2024-01-30T08:37:22;12.90;;;9.50;;
82526;SDS011;72188;41.974;21.456;2024-01-30T08:39:48;14.48;;;10.55;;
82526;SDS011;72188;41.974;21.456;2024-01-30T08:42:14;20.45;;;10.70;;
82526;SDS011;72188;41.974;21.456;2024-01-30T08:44:43;15.80;;;10.45;;
82526;SDS011;72188;41.974;21.456;2024-01-30T08:47:09;19.38;;;10.60;;
82526;SDS011;72188;41.974;21.456;2024-01-30T08:49:35;16.00;;;9.80;;
82526;SDS011;72188;41.974;21.456;2024-01-30T08:52:01;18.40;;;11.30;;
82526;SDS011;72188;41.974;21.456;2024-01-30T08:54:28;14.25;;;9.98;;
82526;SDS011;72188;41.974;21.456;2024-01-30T08:56:54;14.40;;;9.93;;
82526;SDS011;72188;41.974;21.456;2024-01-30T08:59:21;12.45;;;9.50;;
82526;SDS011;72188;41.974;21.456;2024-01-30T09:01:47;16.05;;;10.23;;
82526;SDS011;72188;41.974;21.456;2024-01-30T09:04:13;12.55;;;10.00;;
82526;SDS011;72188;41.974;21.456;2024-01-30T09:06:39;16.27;;;10.13;;
82526;SDS011;72188;41.974;21.456;2024-01-30T09:09:05;15.45;;;10.55;;
82526;SDS011;72188;41.974;21.456;2024-01-30T09:11:31;17.58;;;10.88;;
82526;SDS011;72188;41.974;21.456;2024-01-30T09:13:57;21.38;;;11.57;;
82526;SDS011;72188;41.974;21.456;2024-01-30T09:16:23;12.50;;;8.90;;
82526;SDS011;72188;41.974;21.456;2024-01-30T09:18:49;15.18;;;10.70;;
82526;SDS011;72188;41.974;21.456;2024-01-30T09:21:16;10.65;;;8.30;;
82526;SDS011;72188;41.974;21.456;2024-01-30T09:23:42;7.68;;;4.55;;
82526;SDS011;72188;41.974;21.456;2024-01-30T09:26:08;14.05;;;9.02;;
82526;SDS011;72188;41.974;21.456;2024-01-30T09:28:34;12.65;;;8.52;;
82526;SDS011;72188;41.974;21.456;2024-01-30T09:31:00;13.48;;;9.20;;
82526;SDS011;72188;41.974;21.456;2024-01-30T09:33:27;11.95;;;8.45;;
82526;SDS011;72188;41.974;21.456;2024-01-30T09:35:53;11.52;;;5.53;;
82526;SDS011;72188;41.974;21.456;2024-01-30T09:38:19;9.48;;;5.85;;
82526;SDS011;72188;41.974;21.456;2024-01-30T09:40:47;9.02;;;6.60;;
82526;SDS011;72188;41.974;21.456;2024-01-30T09:43:16;10.25;;;7.03;;
82526;SDS011;72188;41.974;21.456;2024-01-30T09:45:47;14.30;;;9.02;;
82526;SDS011;72188;41.974;21.456;2024-01-30T09:48:14;11.85;;;8.10;;
82526;SDS011;72188;41.974;21.456;2024-01-30T09:50:41;22.23;;;10.93;;
82526;SDS011;72188;41.974;21.456;2024-01-30T09:53:07;12.05;;;6.82;;
82526;SDS011;72188;41.974;21.456;2024-01-30T09:55:35;11.70;;;7.47;;
82526;SDS011;72188;41.974;21.456;2024-01-30T09:58:01;15.30;;;7.07;;
82526;SDS011;72188;41.974;21.456;2024-01-30T10:00:28;12.20;;;6.85;;
82526;SDS011;72188;41.974;21.456;2024-01-30T10:02:54;12.68;;;7.45;;
82526;SDS011;72188;41.974;21.456;2024-01-30T10:05:20;9.10;;;6.20;;
82526;SDS011;72188;41.974;21.456;2024-01-30T10:07:52;10.45;;;7.38;;
82526;SDS011;72188;41.974;21.456;2024-01-30T10:10:21;13.55;;;6.88;;
82526;SDS011;72188;41.974;21.456;2024-01-30T10:12:48;9.75;;;6.55;;
82526;SDS011;72188;41.974;21.456;2024-01-30T10:15:14;13.50;;;6.35;;
82526;SDS011;72188;41.974;21.456;2024-01-30T10:17:40;9.00;;;5.47;;
82526;SDS011;72188;41.974;21.456;2024-01-30T10:20:07;6.53;;;4.57;;
82526;SDS011;72188;41.974;21.456;2024-01-30T10:22:33;9.00;;;6.13;;
82526;SDS011;72188;41.974;21.456;2024-01-30T10:24:59;9.27;;;5.93;;
82526;SDS011;72188;41.974;21.456;2024-01-30T10:27:26;8.63;;;5.97;;
82526;SDS011;72188;41.974;21.456;2024-01-30T10:29:52;8.80;;;6.45;;
82526;SDS011;72188;41.974;21.456;2024-01-30T10:32:19;12.23;;;6.88;;
82526;SDS011;72188;41.974;21.456;2024-01-30T10:34:46;13.32;;;5.00;;
82526;SDS011;72188;41.974;21.456;2024-01-30T10:37:12;10.98;;;5.25;;
82526;SDS011;72188;41.974;21.456;2024-01-30T10:39:41;8.38;;;5.60;;
82526;SDS011;72188;41.974;21.456;2024-01-30T10:42:11;7.50;;;5.55;;
82526;SDS011;72188;41.974;21.456;2024-01-30T10:47:26;6.18;;;4.85;;
82526;SDS011;72188;41.974;21.456;2024-01-30T10:49:53;7.22;;;5.60;;
82526;SDS011;72188;41.974;21.456;2024-01-30T10:52:20;9.30;;;5.07;;
82526;SDS011;72188;41.974;21.456;2024-01-30T10:54:46;6.38;;;5.25;;
82526;SDS011;72188;41.974;21.456;2024-01-30T10:57:12;7.15;;;5.15;;
82526;SDS011;72188;41.974;21.456;2024-01-30T10:59:39;8.75;;;6.30;;
82526;SDS011;72188;41.974;21.456;2024-01-30T11:02:05;11.20;;;6.47;;
82526;SDS011;72188;41.974;21.456;2024-01-30T11:04:40;10.05;;;6.40;;
82526;SDS011;72188;41.974;21.456;2024-01-30T11:07:16;4.03;;;2.70;;
82526;SDS011;72188;41.974;21.456;2024-01-30T11:09:52;6.50;;;5.18;;
82526;SDS011;72188;41.974;21.456;2024-01-30T11:12:22;6.50;;;4.57;;
82526;SDS011;72188;41.974;21.456;2024-01-30T11:14:48;7.80;;;5.53;;
82526;SDS011;72188;41.974;21.456;2024-01-30T11:17:15;7.80;;;4.85;;
82526;SDS011;72188;41.974;21.456;2024-01-30T11:19:41;7.25;;;5.03;;
82526;SDS011;72188;41.974;21.456;2024-01-30T11:22:07;9.38;;;5.93;;
82526;SDS011;72188;41.974;21.456;2024-01-30T11:24:38;7.35;;;4.95;;
82526;SDS011;72188;41.974;21.456;2024-01-30T11:27:08;8.00;;;5.55;;
82526;SDS011;72188;41.974;21.456;2024-01-30T11:29:35;6.85;;;2.80;;
82526;SDS011;72188;41.974;21.456;2024-01-30T11:32:01;6.68;;;5.13;;
82526;SDS011;72188;41.974;21.456;2024-01-30T11:34:27;9.48;;;4.90;;
82526;SDS011;72188;41.974;21.456;2024-01-30T11:36:58;6.07;;;4.85;;
82526;SDS011;72188;41.974;21.456;2024-01-30T11:39:29;12.23;;;6.13;;
82526;SDS011;72188;41.974;21.456;2024-01-30T11:41:55;7.47;;;5.70;;
82526;SDS011;72188;41.974;21.456;2024-01-30T11:44:22;13.63;;;6.53;;
82526;SDS011;72188;41.974;21.456;2024-01-30T11:46:48;8.63;;;6.50;;
82526;SDS011;72188;41.974;21.456;2024-01-30T11:49:14;6.75;;;5.18;;
82526;SDS011;72188;41.974;21.456;2024-01-30T11:51:42;7.75;;;5.07;;
82526;SDS011;72188;41.974;21.456;2024-01-30T11:54:08;8.00;;;5.63;;
82526;SDS011;72188;41.974;21.456;2024-01-30T11:56:34;6.47;;;5.13;;
82526;SDS011;72188;41.974;21.456;2024-01-30T11:59:02;8.90;;;5.65;;
82526;SDS011;72188;41.974;21.456;2024-01-30T12:01:28;9.32;;;6.28;;
82526;SDS011;72188;41.974;21.456;2024-01-30T12:03:55;11.77;;;8.25;;
82526;SDS011;72188;41.974;21.456;2024-01-30T12:06:22;13.65;;;7.90;;
82526;SDS011;72188;41.974;21.456;2024-01-30T12:08:58;28.52;;;14.23;;
82526;SDS011;72188;41.974;21.456;2024-01-30T12:11:24;15.38;;;9.32;;
82526;SDS011;72188;41.974;21.456;2024-01-30T12:13:51;26.98;;;8.90;;
82526;SDS011;72188;41.974;21.456;2024-01-30T12:16:17;8.50;;;5.47;;
82526;SDS011;72188;41.974;21.456;2024-01-30T12:18:43;10.88;;;6.72;;
82526;SDS011;72188;41.974;21.456;2024-01-30T12:21:09;6.05;;;4.70;;
82526;SDS011;72188;41.974;21.456;2024-01-30T12:23:35;22.60;;;8.18;;
82526;SDS011;72188;41.974;21.456;2024-01-30T12:26:01;10.68;;;6.30;;
82526;SDS011;72188;41.974;21.456;2024-01-30T12:28:29;13.77;;;7.85;;
82526;SDS011;72188;41.974;21.456;2024-01-30T12:30:55;7.57;;;5.38;;
82526;SDS011;72188;41.974;21.456;2024-01-30T12:33:26;8.35;;;5.32;;
82526;SDS011;72188;41.974;21.456;2024-01-30T12:35:53;11.93;;;5.90;;
82526;SDS011;72188;41.974;21.456;2024-01-30T12:38:19;8.07;;;5.57;;
82526;SDS011;72188;41.974;21.456;2024-01-30T12:40:45;13.57;;;5.93;;
82526;SDS011;72188;41.974;21.456;2024-01-30T12:43:13;10.85;;;7.05;;
82526;SDS011;72188;41.974;21.456;2024-01-30T12:45:41;9.40;;;6.25;;
82526;SDS011;72188;41.974;21.456;2024-01-30T12:48:08;7.10;;;4.25;;
82526;SDS011;72188;41.974;21.456;2024-01-30T12:50:34;6.10;;;4.72;;
82526;SDS011;72188;41.974;21.456;2024-01-30T12:53:00;7.50;;;4.88;;
82526;SDS011;72188;41.974;21.456;2024-01-30T12:55:26;11.75;;;6.35;;
82526;SDS011;72188;41.974;21.456;2024-01-30T12:57:54;7.68;;;5.32;;
82526;SDS011;72188;41.974;21.456;2024-01-30T13:00:21;7.50;;;5.32;;
82526;SDS011;72188;41.974;21.456;2024-01-30T13:02:47;15.15;;;7.40;;
82526;SDS011;72188;41.974;21.456;2024-01-30T13:05:14;8.07;;;4.47;;
82526;SDS011;72188;41.974;21.456;2024-01-30T13:07:40;6.93;;;4.30;;
82526;SDS011;72188;41.974;21.456;2024-01-30T13:10:06;7.45;;;4.28;;
82526;SDS011;72188;41.974;21.456;2024-01-30T13:12:32;8.10;;;4.50;;
82526;SDS011;72188;41.974;21.456;2024-01-30T13:14:59;8.60;;;5.15;;
82526;SDS011;72188;41.974;21.456;2024-01-30T13:17:26;7.85;;;4.25;;
82526;SDS011;72188;41.974;21.456;2024-01-30T13:19:52;6.18;;;4.43;;
82526;SDS011;72188;41.974;21.456;2024-01-30T13:22:19;10.60;;;4.00;;
82526;SDS011;72188;41.974;21.456;2024-01-30T13:24:49;6.93;;;4.82;;
82526;SDS011;72188;41.974;21.456;2024-01-30T13:27:15;11.27;;;4.78;;
82526;SDS011;72188;41.974;21.456;2024-01-30T13:29:41;9.65;;;4.90;;
82526;SDS011;72188;41.974;21.456;2024-01-30T13:32:07;15.60;;;8.80;;
82526;SDS011;72188;41.974;21.456;2024-01-30T13:34:33;9.23;;;6.70;;
82526;SDS011;72188;41.974;21.456;2024-01-30T13:36:59;11.52;;;7.10;;
82526;SDS011;72188;41.974;21.456;2024-01-30T13:39:25;8.70;;;5.05;;
82526;SDS011;72188;41.974;21.456;2024-01-30T13:41:51;10.32;;;5.45;;
82526;SDS011;72188;41.974;21.456;2024-01-30T13:44:17;7.75;;;4.75;;
82526;SDS011;72188;41.974;21.456;2024-01-30T13:46:44;17.08;;;9.85;;
82526;SDS011;72188;41.974;21.456;2024-01-30T13:49:11;19.10;;;6.65;;
82526;SDS011;72188;41.974;21.456;2024-01-30T13:51:37;16.58;;;8.07;;
82526;SDS011;72188;41.974;21.456;2024-01-30T13:54:05;14.98;;;7.60;;
82526;SDS011;72188;41.974;21.456;2024-01-30T13:58:57;11.02;;;6.03;;
82526;SDS011;72188;41.974;21.456;2024-01-30T14:01:23;8.52;;;5.20;;
82526;SDS011;72188;41.974;21.456;2024-01-30T14:03:49;8.82;;;5.03;;
82526;SDS011;72188;41.974;21.456;2024-01-30T14:06:16;9.20;;;5.25;;
82526;SDS011;72188;41.974;21.456;2024-01-30T14:08:44;10.35;;;5.90;;
82526;SDS011;72188;41.974;21.456;2024-01-30T14:11:10;7.15;;;5.00;;
82526;SDS011;72188;41.974;21.456;2024-01-30T14:13:36;8.00;;;4.93;;
82526;SDS011;72188;41.974;21.456;2024-01-30T14:16:02;12.60;;;7.18;;
82526;SDS011;72188;41.974;21.456;2024-01-30T14:18:28;19.45;;;10.75;;
82526;SDS011;72188;41.974;21.456;2024-01-30T14:20:54;14.68;;;8.07;;